createdAt,value
2023-06-17T00:01:30.841Z,14.90
2023-06-17T00:04:00.444Z,14.94
2023-06-17T00:06:29.835Z,15.00
2023-06-17T00:09:00.708Z,15.05
2023-06-17T00:11:30.252Z,15.09
2023-06-17T00:14:01.261Z,14.96
2023-06-17T00:16:32.244Z,14.70
2023-06-17T00:19:01.577Z,14.61
2023-06-17T00:21:30.933Z,14.54
2023-06-17T00:24:00.352Z,14.59
2023-06-17T00:26:29.766Z,14.68
2023-06-17T00:28:59.131Z,14.55
2023-06-17T00:31:28.769Z,14.48
2023-06-17T00:33:58.173Z,14.49
2023-06-17T00:36:27.560Z,14.33
2023-06-17T00:38:57.192Z,14.27
2023-06-17T00:41:27.035Z,14.29
2023-06-17T00:43:57.023Z,14.29
2023-06-17T00:46:32.228Z,14.34
2023-06-17T00:49:01.764Z,14.40
2023-06-17T00:51:33.004Z,14.46
2023-06-17T00:54:06.260Z,14.55
2023-06-17T00:56:38.230Z,14.58
2023-06-17T00:59:07.588Z,14.60
2023-06-17T01:01:37.651Z,14.56
2023-06-17T01:04:08.255Z,14.46
2023-06-17T01:07:10.965Z,14.19
2023-06-17T01:09:42.663Z,14.19
2023-06-17T01:12:14.750Z,14.16
2023-06-17T01:14:45.102Z,14.17
2023-06-17T01:17:16.551Z,14.22
2023-06-17T01:19:47.579Z,14.27
2023-06-17T01:22:18.941Z,14.32
2023-06-17T01:24:50.535Z,14.35
2023-06-17T01:27:21.540Z,14.29
2023-06-17T01:29:51.570Z,14.27
2023-06-17T01:32:21.023Z,14.29
2023-06-17T01:35:11.604Z,14.08
2023-06-17T01:37:44.126Z,13.95
2023-06-17T01:40:14.940Z,13.77
2023-06-17T01:42:47.834Z,13.55
2023-06-17T01:45:18.875Z,13.59
2023-06-17T01:47:48.932Z,13.80
2023-06-17T01:50:21.117Z,13.80
2023-06-17T01:52:50.888Z,13.62
2023-06-17T01:55:20.817Z,13.60
2023-06-17T01:57:50.368Z,13.68
2023-06-17T02:00:19.990Z,13.69
2023-06-17T02:02:56.340Z,13.77
2023-06-17T02:05:26.367Z,13.79
2023-06-17T02:07:59.773Z,13.80
2023-06-17T02:10:30.821Z,13.80
2023-06-17T02:13:02.015Z,13.80
2023-06-17T02:15:34.344Z,13.81
2023-06-17T02:18:04.135Z,13.88
2023-06-17T02:20:33.598Z,13.96
2023-06-17T02:23:03.928Z,13.99
2023-06-17T02:25:33.255Z,13.95
2023-06-17T02:28:02.584Z,13.92
2023-06-17T02:30:32.584Z,13.85
2023-06-17T02:33:03.612Z,13.85
2023-06-17T02:35:33.044Z,13.89
2023-06-17T02:38:02.443Z,13.86
2023-06-17T02:40:32.135Z,13.88
2023-06-17T02:43:01.437Z,13.89
2023-06-17T02:45:30.866Z,13.77
2023-06-17T02:48:00.592Z,13.66
2023-06-17T02:50:30.822Z,13.58
2023-06-17T02:53:00.169Z,13.52
2023-06-17T02:55:31.254Z,13.46
2023-06-17T02:58:02.306Z,13.48
2023-06-17T03:00:34.032Z,13.49
2023-06-17T03:03:03.466Z,13.51
2023-06-17T03:05:32.963Z,13.47
2023-06-17T03:08:02.349Z,13.51
2023-06-17T03:10:31.935Z,13.55
2023-06-17T03:13:03.277Z,13.43
2023-06-17T03:15:33.837Z,13.46
2023-06-17T03:18:05.163Z,13.40
2023-06-17T03:20:36.037Z,13.27
2023-06-17T03:23:06.197Z,12.98
2023-06-17T03:25:35.588Z,12.90
2023-06-17T03:28:06.185Z,12.91
2023-06-17T03:30:36.005Z,13.00
2023-06-17T03:33:05.542Z,13.02
2023-06-17T03:35:35.641Z,13.07
2023-06-17T03:38:05.061Z,13.05
2023-06-17T03:40:34.556Z,13.08
2023-06-17T03:43:04.418Z,13.08
2023-06-17T03:45:36.767Z,13.09
2023-06-17T03:48:07.874Z,13.21
2023-06-17T03:50:37.321Z,13.19
2023-06-17T03:53:09.246Z,13.16
2023-06-17T03:55:40.822Z,13.12
2023-06-17T03:58:11.885Z,13.22
2023-06-17T04:00:42.118Z,13.19
2023-06-17T04:03:12.992Z,13.24
2023-06-17T04:05:43.753Z,13.39
2023-06-17T04:08:13.295Z,13.43
2023-06-17T04:10:42.620Z,13.38
2023-06-17T04:13:12.062Z,13.35
2023-06-17T04:15:41.432Z,13.32
2023-06-17T04:18:12.105Z,13.25
2023-06-17T04:20:41.470Z,13.44
2023-06-17T04:23:11.193Z,13.30
2023-06-17T04:25:41.740Z,13.25
2023-06-17T04:28:13.454Z,13.31
2023-06-17T04:30:44.604Z,13.35
2023-06-17T04:33:17.967Z,13.45
2023-06-17T04:35:48.363Z,13.59
2023-06-17T04:38:18.019Z,13.73
2023-06-17T04:40:48.135Z,13.82
2023-06-17T04:43:18.247Z,13.96
2023-06-17T04:45:47.588Z,14.09
2023-06-17T04:48:17.195Z,14.17
2023-06-17T04:50:46.845Z,14.37
2023-06-17T04:53:16.251Z,14.57
2023-06-17T04:55:45.926Z,14.65
2023-06-17T04:58:16.648Z,14.78
2023-06-17T05:00:47.687Z,14.81
2023-06-17T05:03:18.787Z,14.83
2023-06-17T05:05:48.861Z,14.95
2023-06-17T05:08:18.593Z,15.09
2023-06-17T05:10:47.878Z,15.23
2023-06-17T05:13:17.521Z,15.34
2023-06-17T05:15:46.868Z,15.29
2023-06-17T05:18:16.357Z,15.42
2023-06-17T05:20:46.225Z,15.46
2023-06-17T05:23:15.622Z,15.54
2023-06-17T05:25:45.802Z,15.60
2023-06-17T05:28:15.168Z,15.69
2023-06-17T05:30:44.672Z,15.89
2023-06-17T05:33:15.833Z,15.96
2023-06-17T05:35:45.399Z,16.07
2023-06-17T05:38:14.873Z,16.21
2023-06-17T05:40:44.318Z,16.30
2023-06-17T05:43:14.228Z,16.44
2023-06-17T05:45:44.179Z,16.52
2023-06-17T05:48:14.020Z,16.68
2023-06-17T05:50:43.453Z,17.06
2023-06-17T05:53:13.029Z,17.26
2023-06-17T05:55:42.434Z,17.33
2023-06-17T05:58:12.181Z,17.43
2023-06-17T06:00:43.269Z,17.55
2023-06-17T06:03:12.646Z,17.44
2023-06-17T06:05:41.969Z,17.65
2023-06-17T06:08:11.370Z,18.24
2023-06-17T06:10:40.920Z,18.47
2023-06-17T06:13:10.614Z,18.37
2023-06-17T06:15:40.028Z,18.26
2023-06-17T06:18:09.577Z,18.17
2023-06-17T06:20:38.928Z,18.05
2023-06-17T06:23:10.204Z,17.92
2023-06-17T06:25:39.636Z,18.10
2023-06-17T06:28:10.035Z,18.31
2023-06-17T06:30:40.408Z,18.48
2023-06-17T06:33:10.514Z,18.59
2023-06-17T06:35:39.989Z,18.38
2023-06-17T06:38:11.017Z,18.40
2023-06-17T06:40:41.658Z,18.47
2023-06-17T06:43:11.454Z,18.47
2023-06-17T06:45:51.943Z,18.54
2023-06-17T06:48:21.488Z,18.60
2023-06-17T06:50:51.930Z,18.64
2023-06-17T06:53:23.954Z,18.62
2023-06-17T06:55:54.103Z,18.67
2023-06-17T06:58:23.668Z,18.76
2023-06-17T07:00:53.639Z,18.92
2023-06-17T07:03:23.546Z,18.88
2023-06-17T07:05:53.264Z,18.87
2023-06-17T07:08:23.243Z,18.87
2023-06-17T07:10:52.750Z,19.03
2023-06-17T07:13:23.774Z,19.03
2023-06-17T07:15:53.807Z,19.05
2023-06-17T07:18:24.491Z,19.18
2023-06-17T07:20:53.844Z,19.27
2023-06-17T07:23:23.246Z,19.22
2023-06-17T07:25:55.896Z,19.35
2023-06-17T07:28:24.442Z,19.52
2023-06-17T07:30:54.717Z,19.59
2023-06-17T07:33:24.295Z,19.58
2023-06-17T07:35:54.109Z,19.69
2023-06-17T07:38:24.927Z,19.67
2023-06-17T07:40:54.358Z,19.64
2023-06-17T07:43:23.664Z,19.83
2023-06-17T07:45:53.122Z,19.85
2023-06-17T07:48:22.427Z,19.92
2023-06-17T07:50:51.877Z,20.07
2023-06-17T07:53:21.264Z,20.19
2023-06-17T07:55:50.572Z,20.22
2023-06-17T07:58:19.900Z,20.28
2023-06-17T08:00:49.308Z,20.44
2023-06-17T08:03:18.804Z,20.51
2023-06-17T08:05:48.381Z,20.62
2023-06-17T08:08:17.855Z,20.71
2023-06-17T08:10:47.243Z,20.89
2023-06-17T08:13:16.565Z,20.95
2023-06-17T08:15:45.876Z,20.99
2023-06-17T08:18:15.321Z,21.01
2023-06-17T08:20:44.681Z,21.45
2023-06-17T08:23:14.062Z,21.45
2023-06-17T08:25:43.522Z,21.47
2023-06-17T08:28:12.852Z,21.60
2023-06-17T08:30:42.196Z,21.65
2023-06-17T08:33:11.879Z,21.81
2023-06-17T08:35:41.282Z,22.03
2023-06-17T08:38:10.635Z,22.22
2023-06-17T08:40:40.814Z,22.16
2023-06-17T08:43:11.164Z,22.11
2023-06-17T08:45:41.288Z,22.19
2023-06-17T08:48:11.429Z,21.95
2023-06-17T08:50:41.605Z,21.90
2023-06-17T08:53:11.414Z,21.83
2023-06-17T08:55:53.162Z,21.98
2023-06-17T08:58:22.539Z,21.99
2023-06-17T09:00:52.260Z,22.06
2023-06-17T09:03:23.289Z,22.16
2023-06-17T09:05:54.640Z,22.16
2023-06-17T09:08:24.611Z,22.12
2023-06-17T09:10:53.989Z,22.24
2023-06-17T09:13:23.293Z,22.29
2023-06-17T09:15:52.685Z,22.35
2023-06-17T09:18:22.956Z,22.34
2023-06-17T09:20:55.672Z,22.34
2023-06-17T09:23:26.821Z,22.83
2023-06-17T09:26:03.906Z,22.95
2023-06-17T09:28:33.723Z,23.00
2023-06-17T09:31:05.450Z,23.00
2023-06-17T09:33:34.856Z,22.76
2023-06-17T09:36:09.753Z,23.00
2023-06-17T09:38:40.099Z,23.16
2023-06-17T09:41:09.424Z,23.01
2023-06-17T09:43:41.552Z,23.18
2023-06-17T09:46:12.702Z,23.36
2023-06-17T09:48:42.986Z,23.53
2023-06-17T09:51:13.366Z,23.74
2023-06-17T09:53:43.285Z,24.21
2023-06-17T09:56:14.495Z,24.63
2023-06-17T09:58:45.218Z,24.56
2023-06-17T10:01:15.091Z,25.02
2023-06-17T10:03:44.701Z,25.72
2023-06-17T10:06:17.427Z,25.74
2023-06-17T10:08:51.878Z,26.62
2023-06-17T10:11:22.252Z,27.63
2023-06-17T10:14:06.934Z,29.48
2023-06-17T10:16:39.774Z,31.08
2023-06-17T10:19:10.739Z,31.88
2023-06-17T10:21:42.883Z,33.48
2023-06-17T10:24:12.608Z,32.36
2023-06-17T10:26:41.960Z,30.93
2023-06-17T10:29:12.870Z,32.02
2023-06-17T10:31:44.079Z,32.84
2023-06-17T10:34:18.082Z,33.31
2023-06-17T10:36:55.119Z,33.03
2023-06-17T10:39:24.505Z,34.58
2023-06-17T10:41:57.199Z,34.91
2023-06-17T10:44:32.042Z,34.27
2023-06-17T10:47:01.545Z,34.31
2023-06-17T10:49:43.911Z,32.83
2023-06-17T10:52:16.991Z,32.80
2023-06-17T10:54:56.706Z,32.82
2023-06-17T10:57:36.895Z,32.16
2023-06-17T11:00:10.745Z,31.72
2023-06-17T11:02:41.444Z,32.74
2023-06-17T11:05:11.350Z,34.01
2023-06-17T11:07:40.636Z,33.70
2023-06-17T11:10:10.264Z,33.06
2023-06-17T11:12:40.706Z,33.48
2023-06-17T11:15:10.556Z,33.28
2023-06-17T11:17:39.992Z,32.89
2023-06-17T11:20:10.529Z,33.30
2023-06-17T11:22:40.749Z,32.89
2023-06-17T11:25:12.060Z,32.32
2023-06-17T11:27:41.870Z,32.80
2023-06-17T11:30:14.049Z,33.13
2023-06-17T11:32:43.839Z,32.17
2023-06-17T11:35:13.555Z,32.44
2023-06-17T11:37:43.658Z,33.44
2023-06-17T11:40:13.966Z,33.10
2023-06-17T11:42:43.538Z,32.40
2023-06-17T11:45:12.922Z,32.40
2023-06-17T11:47:42.268Z,32.24
2023-06-17T11:50:12.498Z,31.25
2023-06-17T11:52:41.827Z,30.34
2023-06-17T11:55:16.368Z,30.45
2023-06-17T11:57:45.880Z,30.87
2023-06-17T12:00:16.637Z,31.41
2023-06-17T12:02:46.150Z,31.01
2023-06-17T12:05:15.776Z,30.94
2023-06-17T12:07:47.197Z,31.46
2023-06-17T12:10:16.561Z,31.63
2023-06-17T12:12:48.192Z,31.82
2023-06-17T12:15:17.900Z,31.83
2023-06-17T12:17:52.592Z,32.17
2023-06-17T12:20:23.022Z,31.95
2023-06-17T12:22:54.207Z,31.83
2023-06-17T12:25:24.588Z,31.49
2023-06-17T12:27:54.162Z,31.99
2023-06-17T12:30:23.548Z,32.58
2023-06-17T12:32:52.991Z,32.44
2023-06-17T12:35:23.945Z,32.65
2023-06-17T12:37:57.162Z,32.28
2023-06-17T12:40:28.499Z,32.53
2023-06-17T12:42:57.849Z,32.10
2023-06-17T12:45:28.320Z,32.17
2023-06-17T12:47:57.865Z,32.66
2023-06-17T12:50:27.385Z,32.88
2023-06-17T12:52:56.699Z,32.88
2023-06-17T12:55:26.022Z,31.73
2023-06-17T12:57:55.395Z,32.91
2023-06-17T13:00:24.816Z,32.91
2023-06-17T13:02:55.868Z,32.42
2023-06-17T13:05:25.272Z,32.95
2023-06-17T13:07:54.975Z,32.36
2023-06-17T13:10:24.695Z,32.55
2023-06-17T13:12:54.756Z,32.04
2023-06-17T13:15:25.032Z,32.28
2023-06-17T13:17:54.444Z,32.90
2023-06-17T13:20:24.545Z,32.41
2023-06-17T13:22:54.356Z,32.62
2023-06-17T13:25:25.670Z,32.57
2023-06-17T13:27:55.209Z,32.03
2023-06-17T13:30:25.060Z,32.13
2023-06-17T13:32:54.687Z,31.85
2023-06-17T13:35:24.414Z,31.25
2023-06-17T13:37:55.968Z,31.37
2023-06-17T13:40:25.298Z,30.77
2023-06-17T13:42:54.752Z,30.63
2023-06-17T13:45:24.130Z,30.53
2023-06-17T13:47:53.519Z,30.51
2023-06-17T13:50:23.186Z,30.47
2023-06-17T13:52:52.885Z,30.34
2023-06-17T13:55:22.387Z,29.95
2023-06-17T13:57:51.912Z,29.78
2023-06-17T14:00:21.618Z,29.54
2023-06-17T14:02:51.809Z,29.49
2023-06-17T14:05:21.623Z,29.57
2023-06-17T14:07:50.938Z,29.31
2023-06-17T14:10:22.054Z,29.35
2023-06-17T14:12:52.094Z,29.30
2023-06-17T14:15:21.505Z,28.90
2023-06-17T14:17:50.882Z,28.84
2023-06-17T14:20:20.747Z,28.75
2023-06-17T14:22:50.371Z,28.42
2023-06-17T14:25:19.704Z,28.48
2023-06-17T14:27:49.013Z,28.27
2023-06-17T14:30:18.439Z,28.16
2023-06-17T14:32:49.469Z,28.38
2023-06-17T14:35:20.263Z,28.14
2023-06-17T14:37:50.978Z,28.00
2023-06-17T14:40:21.133Z,27.74
2023-06-17T14:42:50.718Z,27.96
2023-06-17T14:45:20.123Z,28.10
2023-06-17T14:47:50.532Z,27.85
2023-06-17T14:50:20.254Z,27.79
2023-06-17T14:52:50.838Z,27.63
2023-06-17T14:55:20.513Z,27.54
2023-06-17T14:57:49.817Z,27.48
2023-06-17T15:00:21.643Z,27.39
2023-06-17T15:02:54.257Z,27.81
2023-06-17T15:05:24.136Z,27.94
2023-06-17T15:07:53.642Z,27.77
2023-06-17T15:10:23.272Z,27.59
2023-06-17T15:12:52.837Z,27.78
2023-06-17T15:15:22.734Z,27.85
2023-06-17T15:17:52.834Z,27.88
2023-06-17T15:20:22.703Z,27.85
2023-06-17T15:22:52.290Z,27.91
2023-06-17T15:25:21.604Z,27.78
2023-06-17T15:27:50.934Z,28.04
2023-06-17T15:30:21.794Z,28.03
2023-06-17T15:32:52.878Z,27.89
2023-06-17T15:35:24.515Z,27.96
2023-06-17T15:37:53.934Z,28.01
2023-06-17T15:40:26.436Z,28.04
2023-06-17T15:42:55.744Z,27.99
2023-06-17T15:45:25.476Z,28.00
2023-06-17T15:47:56.220Z,27.78
2023-06-17T15:50:25.751Z,27.71
2023-06-17T15:52:55.066Z,27.53
2023-06-17T15:55:24.444Z,27.54
2023-06-17T15:57:53.853Z,27.40
2023-06-17T16:00:23.745Z,27.32
2023-06-17T16:02:53.560Z,27.26
2023-06-17T16:05:22.913Z,27.06
2023-06-17T16:07:52.337Z,27.10
2023-06-17T16:10:21.809Z,27.18
2023-06-17T16:12:51.890Z,26.98
2023-06-17T16:15:21.750Z,26.91
2023-06-17T16:17:52.335Z,26.97
2023-06-17T16:20:22.019Z,26.85
2023-06-17T16:22:51.627Z,26.96
2023-06-17T16:25:21.094Z,26.77
2023-06-17T16:27:50.426Z,26.89
2023-06-17T16:30:21.065Z,27.02
2023-06-17T16:32:50.737Z,26.99
2023-06-17T16:35:20.143Z,27.02
2023-06-17T16:37:49.538Z,26.93
2023-06-17T16:40:19.141Z,26.75
2023-06-17T16:42:48.631Z,26.79
2023-06-17T16:45:18.182Z,26.80
2023-06-17T16:47:47.533Z,26.78
2023-06-17T16:50:16.864Z,26.93
2023-06-17T16:52:46.190Z,26.89
2023-06-17T16:55:15.497Z,26.98
2023-06-17T16:57:44.792Z,27.11
2023-06-17T17:00:14.795Z,27.22
2023-06-17T17:02:44.211Z,27.28
2023-06-17T17:05:13.819Z,27.16
2023-06-17T17:07:43.114Z,27.05
2023-06-17T17:10:12.496Z,26.90
2023-06-17T17:12:41.806Z,26.58
2023-06-17T17:15:11.911Z,26.56
2023-06-17T17:17:41.532Z,26.47
2023-06-17T17:20:11.786Z,26.43
2023-06-17T17:22:42.681Z,26.34
2023-06-17T17:25:13.095Z,26.08
2023-06-17T17:27:42.638Z,26.03
2023-06-17T17:30:14.410Z,25.98
2023-06-17T17:32:43.808Z,25.77
2023-06-17T17:35:14.006Z,25.61
2023-06-17T17:37:43.959Z,25.43
2023-06-17T17:40:13.695Z,25.35
2023-06-17T17:42:43.023Z,25.18
2023-06-17T17:45:12.592Z,25.21
2023-06-17T17:47:42.269Z,25.11
2023-06-17T17:50:12.052Z,25.08
2023-06-17T17:52:41.593Z,25.08
2023-06-17T17:55:11.092Z,25.03
2023-06-17T17:57:40.476Z,24.98
2023-06-17T18:00:10.669Z,24.95
2023-06-17T18:02:45.197Z,24.95
2023-06-17T18:05:14.691Z,25.09
2023-06-17T18:07:44.067Z,25.19
2023-06-17T18:10:13.579Z,25.25
2023-06-17T18:12:42.916Z,25.29
2023-06-17T18:15:12.881Z,25.29
2023-06-17T18:17:42.246Z,25.38
2023-06-17T18:20:12.419Z,25.30
2023-06-17T18:22:41.743Z,25.31
2023-06-17T18:25:11.815Z,25.29
2023-06-17T18:27:41.152Z,25.21
2023-06-17T18:30:11.329Z,25.10
2023-06-17T18:32:40.993Z,25.09
2023-06-17T18:35:10.438Z,24.98
2023-06-17T18:37:41.426Z,24.94
2023-06-17T18:40:11.338Z,24.92
2023-06-17T18:42:40.946Z,24.90
2023-06-17T18:45:11.110Z,24.72
2023-06-17T18:47:40.577Z,24.65
2023-06-17T18:50:10.817Z,24.44
2023-06-17T18:52:40.165Z,24.44
2023-06-17T18:55:09.909Z,24.40
2023-06-17T18:57:39.287Z,24.29
2023-06-17T19:00:09.328Z,24.22
2023-06-17T19:02:39.045Z,24.18
2023-06-17T19:05:09.364Z,24.12
2023-06-17T19:07:40.360Z,24.04
2023-06-17T19:10:10.374Z,23.89
2023-06-17T19:12:40.284Z,23.88
2023-06-17T19:15:11.561Z,23.92
2023-06-17T19:17:40.957Z,23.87
2023-06-17T19:20:11.364Z,23.75
2023-06-17T19:22:41.783Z,23.67
2023-06-17T19:25:11.388Z,23.57
2023-06-17T19:27:40.737Z,23.49
2023-06-17T19:30:10.736Z,23.45
2023-06-17T19:32:40.125Z,23.40
2023-06-17T19:35:10.161Z,23.35
2023-06-17T19:37:39.868Z,23.39
2023-06-17T19:40:10.061Z,23.35
2023-06-17T19:42:39.404Z,23.36
2023-06-17T19:45:10.800Z,23.35
2023-06-17T19:47:40.280Z,23.29
2023-06-17T19:50:10.057Z,23.20
2023-06-17T19:52:39.403Z,23.17
2023-06-17T19:55:09.405Z,23.15
2023-06-17T19:57:38.838Z,23.09
2023-06-17T20:00:09.945Z,22.95
2023-06-17T20:02:42.659Z,22.88
2023-06-17T20:05:12.875Z,22.92
2023-06-17T20:07:42.283Z,22.94
2023-06-17T20:10:11.830Z,22.80
2023-06-17T20:12:41.178Z,22.64
2023-06-17T20:15:11.326Z,22.57
2023-06-17T20:17:40.940Z,22.52
2023-06-17T20:20:12.334Z,22.47
2023-06-17T20:22:42.304Z,22.38
2023-06-17T20:25:11.777Z,22.36
2023-06-17T20:27:42.826Z,22.39
2023-06-17T20:30:13.032Z,22.45
2023-06-17T20:32:43.257Z,22.55
2023-06-17T20:35:12.782Z,22.55
2023-06-17T20:37:44.080Z,22.55
2023-06-17T20:40:13.728Z,22.51
2023-06-17T20:42:43.027Z,22.39
2023-06-17T20:45:12.651Z,22.30
2023-06-17T20:47:42.087Z,22.30
2023-06-17T20:50:12.718Z,22.22
2023-06-17T20:52:42.047Z,22.22
2023-06-17T20:55:11.655Z,22.21
2023-06-17T20:57:41.061Z,22.20
2023-06-17T21:00:11.308Z,22.12
2023-06-17T21:02:41.316Z,22.09
2023-06-17T21:05:11.124Z,22.11
2023-06-17T21:07:40.680Z,22.18
2023-06-17T21:10:11.229Z,22.10
2023-06-17T21:12:40.562Z,21.97
2023-06-17T21:15:10.975Z,21.95
2023-06-17T21:17:40.490Z,21.88
2023-06-17T21:20:10.852Z,21.79
2023-06-17T21:22:40.251Z,21.81
2023-06-17T21:25:10.353Z,21.80
2023-06-17T21:27:39.679Z,21.89
2023-06-17T21:30:09.669Z,21.94
2023-06-17T21:32:39.028Z,21.99
2023-06-17T21:35:09.082Z,21.99
2023-06-17T21:37:38.752Z,21.93
2023-06-17T21:40:10.038Z,21.88
2023-06-17T21:42:40.139Z,21.91
2023-06-17T21:45:10.628Z,21.82
2023-06-17T21:47:39.997Z,21.76
2023-06-17T21:50:10.233Z,21.70
2023-06-17T21:52:39.563Z,21.63
2023-06-17T21:55:09.653Z,21.61
2023-06-17T21:57:38.961Z,21.45
2023-06-17T22:00:10.242Z,21.45
2023-06-17T22:02:43.108Z,21.42
2023-06-17T22:05:12.618Z,21.33
2023-06-17T22:07:42.017Z,21.22
2023-06-17T22:10:11.683Z,21.16
2023-06-17T22:12:41.010Z,21.02
2023-06-17T22:15:10.999Z,21.02
2023-06-17T22:17:40.323Z,20.99
2023-06-17T22:20:10.378Z,20.91
2023-06-17T22:22:39.682Z,20.89
2023-06-17T22:25:09.646Z,20.76
2023-06-17T22:27:38.928Z,20.73
2023-06-17T22:30:09.169Z,20.67
2023-06-17T22:32:38.520Z,20.65
2023-06-17T22:35:08.386Z,20.61
2023-06-17T22:37:37.676Z,20.58
2023-06-17T22:40:08.979Z,20.46
2023-06-17T22:42:38.319Z,20.43
2023-06-17T22:45:08.242Z,20.47
2023-06-17T22:47:37.562Z,20.48
2023-06-17T22:50:08.209Z,20.48
2023-06-17T22:52:37.773Z,20.48
2023-06-17T22:55:07.675Z,20.48
2023-06-17T22:57:38.595Z,20.44
2023-06-17T23:00:09.375Z,20.44
2023-06-17T23:02:38.737Z,20.43
2023-06-17T23:05:08.738Z,20.50
2023-06-17T23:07:38.019Z,20.49
2023-06-17T23:10:08.132Z,20.50
2023-06-17T23:12:37.433Z,20.51
2023-06-17T23:15:07.322Z,20.48
2023-06-17T23:17:36.717Z,20.41
2023-06-17T23:20:07.084Z,20.38
2023-06-17T23:22:36.969Z,20.32
2023-06-17T23:25:08.388Z,20.25
2023-06-17T23:27:38.036Z,20.25
2023-06-17T23:30:08.634Z,20.22
2023-06-17T23:32:38.755Z,20.07
2023-06-17T23:35:09.596Z,19.98
2023-06-17T23:37:38.907Z,19.98
2023-06-17T23:40:09.845Z,19.95
2023-06-17T23:42:39.175Z,19.90
2023-06-17T23:45:11.145Z,19.80
2023-06-17T23:47:41.083Z,19.69
2023-06-17T23:50:11.181Z,19.66
2023-06-17T23:52:40.618Z,19.68
2023-06-17T23:55:10.493Z,19.69
2023-06-17T23:57:41.634Z,19.59
